sensor_id;sensor_type;location;lat;lon;timestamp;P1;durP1;ratioP1;P2;durP2;ratioP2
69621;SDS011;56841;55.964;37.674;2023-08-06T00:00:42;26.77;;;12.90;;
69621;SDS011;56841;55.964;37.674;2023-08-06T00:03:08;35.95;;;13.48;;
69621;SDS011;56841;55.964;37.674;2023-08-06T00:05:33;27.45;;;13.55;;
69621;SDS011;56841;55.964;37.674;2023-08-06T00:07:59;28.98;;;13.15;;
69621;SDS011;56841;55.964;37.674;2023-08-06T00:10:25;24.67;;;13.05;;
69621;SDS011;56841;55.964;37.674;2023-08-06T00:12:51;25.25;;;13.32;;
69621;SDS011;56841;55.964;37.674;2023-08-06T00:15:17;28.13;;;13.40;;
69621;SDS011;56841;55.964;37.674;2023-08-06T00:17:42;28.67;;;13.73;;
69621;SDS011;56841;55.964;37.674;2023-08-06T00:20:08;30.00;;;13.23;;
69621;SDS011;56841;55.964;37.674;2023-08-06T00:22:35;29.77;;;12.77;;
69621;SDS011;56841;55.964;37.674;2023-08-06T00:25:02;27.50;;;13.18;;
69621;SDS011;56841;55.964;37.674;2023-08-06T00:27:31;27.85;;;13.07;;
69621;SDS011;56841;55.964;37.674;2023-08-06T00:29:58;35.72;;;13.65;;
69621;SDS011;56841;55.964;37.674;2023-08-06T00:32:24;36.47;;;13.90;;
69621;SDS011;56841;55.964;37.674;2023-08-06T00:34:51;39.15;;;14.68;;
69621;SDS011;56841;55.964;37.674;2023-08-06T00:37:17;38.08;;;14.15;;
69621;SDS011;56841;55.964;37.674;2023-08-06T00:39:44;40.75;;;14.48;;
69621;SDS011;56841;55.964;37.674;2023-08-06T00:42:10;35.38;;;14.13;;
69621;SDS011;56841;55.964;37.674;2023-08-06T00:44:37;34.53;;;13.80;;
69621;SDS011;56841;55.964;37.674;2023-08-06T00:47:03;32.60;;;14.18;;
69621;SDS011;56841;55.964;37.674;2023-08-06T00:49:29;33.88;;;15.30;;
69621;SDS011;56841;55.964;37.674;2023-08-06T00:51:56;43.10;;;14.55;;
69621;SDS011;56841;55.964;37.674;2023-08-06T00:54:23;32.40;;;13.63;;
69621;SDS011;56841;55.964;37.674;2023-08-06T00:56:50;30.70;;;13.60;;
69621;SDS011;56841;55.964;37.674;2023-08-06T00:59:16;34.47;;;13.75;;
69621;SDS011;56841;55.964;37.674;2023-08-06T01:01:42;32.67;;;13.57;;
69621;SDS011;56841;55.964;37.674;2023-08-06T01:04:09;31.90;;;13.73;;
69621;SDS011;56841;55.964;37.674;2023-08-06T01:14:26;34.40;;;14.45;;
69621;SDS011;56841;55.964;37.674;2023-08-06T01:17:02;35.47;;;14.35;;
69621;SDS011;56841;55.964;37.674;2023-08-06T01:19:30;31.67;;;15.10;;
69621;SDS011;56841;55.964;37.674;2023-08-06T01:21:56;32.58;;;14.68;;
69621;SDS011;56841;55.964;37.674;2023-08-06T01:24:21;30.75;;;15.85;;
69621;SDS011;56841;55.964;37.674;2023-08-06T01:29:59;35.22;;;15.20;;
69621;SDS011;56841;55.964;37.674;2023-08-06T01:32:32;33.85;;;15.63;;
69621;SDS011;56841;55.964;37.674;2023-08-06T01:35:01;36.80;;;15.80;;
69621;SDS011;56841;55.964;37.674;2023-08-06T01:37:30;36.60;;;16.15;;
69621;SDS011;56841;55.964;37.674;2023-08-06T01:39:57;32.50;;;15.57;;
69621;SDS011;56841;55.964;37.674;2023-08-06T01:42:24;33.10;;;15.40;;
69621;SDS011;56841;55.964;37.674;2023-08-06T01:44:50;30.08;;;15.93;;
69621;SDS011;56841;55.964;37.674;2023-08-06T01:47:16;32.72;;;16.50;;
69621;SDS011;56841;55.964;37.674;2023-08-06T01:49:41;40.17;;;16.88;;
69621;SDS011;56841;55.964;37.674;2023-08-06T01:52:07;30.30;;;15.52;;
69621;SDS011;56841;55.964;37.674;2023-08-06T01:54:33;30.55;;;15.93;;
69621;SDS011;56841;55.964;37.674;2023-08-06T01:56:58;29.58;;;15.70;;
69621;SDS011;56841;55.964;37.674;2023-08-06T01:59:24;33.90;;;15.68;;
69621;SDS011;56841;55.964;37.674;2023-08-06T02:01:50;31.13;;;15.32;;
69621;SDS011;56841;55.964;37.674;2023-08-06T02:04:16;35.70;;;16.02;;
69621;SDS011;56841;55.964;37.674;2023-08-06T02:06:42;32.88;;;16.08;;
69621;SDS011;56841;55.964;37.674;2023-08-06T02:09:07;30.92;;;15.60;;
69621;SDS011;56841;55.964;37.674;2023-08-06T02:11:35;30.75;;;15.32;;
69621;SDS011;56841;55.964;37.674;2023-08-06T02:14:01;30.48;;;16.35;;
69621;SDS011;56841;55.964;37.674;2023-08-06T02:16:27;29.52;;;16.10;;
69621;SDS011;56841;55.964;37.674;2023-08-06T02:18:53;30.05;;;15.02;;
69621;SDS011;56841;55.964;37.674;2023-08-06T02:21:32;32.35;;;14.98;;
69621;SDS011;56841;55.964;37.674;2023-08-06T02:23:57;36.88;;;16.00;;
69621;SDS011;56841;55.964;37.674;2023-08-06T02:26:23;36.60;;;15.73;;
69621;SDS011;56841;55.964;37.674;2023-08-06T02:28:49;33.55;;;15.80;;
69621;SDS011;56841;55.964;37.674;2023-08-06T02:31:15;38.75;;;16.92;;
69621;SDS011;56841;55.964;37.674;2023-08-06T02:33:40;35.50;;;15.63;;
69621;SDS011;56841;55.964;37.674;2023-08-06T02:36:06;26.38;;;15.15;;
69621;SDS011;56841;55.964;37.674;2023-08-06T02:38:32;30.92;;;15.30;;
69621;SDS011;56841;55.964;37.674;2023-08-06T02:40:58;32.80;;;15.30;;
69621;SDS011;56841;55.964;37.674;2023-08-06T02:43:24;31.42;;;14.75;;
69621;SDS011;56841;55.964;37.674;2023-08-06T02:45:50;38.65;;;15.20;;
69621;SDS011;56841;55.964;37.674;2023-08-06T02:48:16;40.50;;;15.75;;
69621;SDS011;56841;55.964;37.674;2023-08-06T02:50:43;41.00;;;15.90;;
69621;SDS011;56841;55.964;37.674;2023-08-06T02:53:10;37.55;;;15.77;;
69621;SDS011;56841;55.964;37.674;2023-08-06T02:55:36;33.50;;;15.82;;
69621;SDS011;56841;55.964;37.674;2023-08-06T02:58:07;37.78;;;15.65;;
69621;SDS011;56841;55.964;37.674;2023-08-06T03:00:38;32.00;;;14.90;;
69621;SDS011;56841;55.964;37.674;2023-08-06T03:03:06;28.83;;;15.52;;
69621;SDS011;56841;55.964;37.674;2023-08-06T03:05:39;37.65;;;16.25;;
69621;SDS011;56841;55.964;37.674;2023-08-06T03:08:05;31.75;;;15.85;;
69621;SDS011;56841;55.964;37.674;2023-08-06T03:10:33;29.90;;;16.00;;
69621;SDS011;56841;55.964;37.674;2023-08-06T03:13:02;28.88;;;14.82;;
69621;SDS011;56841;55.964;37.674;2023-08-06T03:15:28;33.95;;;16.27;;
69621;SDS011;56841;55.964;37.674;2023-08-06T03:17:55;31.20;;;16.10;;
69621;SDS011;56841;55.964;37.674;2023-08-06T03:20:21;30.95;;;15.43;;
69621;SDS011;56841;55.964;37.674;2023-08-06T03:22:47;32.22;;;15.85;;
69621;SDS011;56841;55.964;37.674;2023-08-06T03:25:12;33.30;;;15.93;;
69621;SDS011;56841;55.964;37.674;2023-08-06T03:27:42;30.73;;;14.40;;
69621;SDS011;56841;55.964;37.674;2023-08-06T03:30:08;26.52;;;14.68;;
69621;SDS011;56841;55.964;37.674;2023-08-06T03:32:34;29.40;;;15.27;;
69621;SDS011;56841;55.964;37.674;2023-08-06T03:35:00;22.60;;;14.95;;
69621;SDS011;56841;55.964;37.674;2023-08-06T03:37:30;28.85;;;14.63;;
69621;SDS011;56841;55.964;37.674;2023-08-06T03:39:56;27.23;;;14.63;;
69621;SDS011;56841;55.964;37.674;2023-08-06T03:42:22;25.27;;;14.18;;
69621;SDS011;56841;55.964;37.674;2023-08-06T03:44:48;28.67;;;14.40;;
69621;SDS011;56841;55.964;37.674;2023-08-06T03:47:14;23.30;;;14.35;;
69621;SDS011;56841;55.964;37.674;2023-08-06T03:49:39;28.77;;;14.05;;
69621;SDS011;56841;55.964;37.674;2023-08-06T03:52:06;27.90;;;13.75;;
69621;SDS011;56841;55.964;37.674;2023-08-06T03:54:32;32.47;;;13.88;;
69621;SDS011;56841;55.964;37.674;2023-08-06T03:56:58;28.27;;;13.60;;
69621;SDS011;56841;55.964;37.674;2023-08-06T03:59:24;28.08;;;13.52;;
69621;SDS011;56841;55.964;37.674;2023-08-06T04:01:50;27.10;;;13.45;;
69621;SDS011;56841;55.964;37.674;2023-08-06T04:04:16;26.35;;;13.15;;
69621;SDS011;56841;55.964;37.674;2023-08-06T04:06:41;28.40;;;13.23;;
69621;SDS011;56841;55.964;37.674;2023-08-06T04:09:07;30.92;;;12.80;;
69621;SDS011;56841;55.964;37.674;2023-08-06T04:11:33;29.27;;;12.52;;
69621;SDS011;56841;55.964;37.674;2023-08-06T04:13:59;24.35;;;12.18;;
69621;SDS011;56841;55.964;37.674;2023-08-06T04:16:25;27.02;;;11.63;;
69621;SDS011;56841;55.964;37.674;2023-08-06T04:18:52;20.85;;;11.40;;
69621;SDS011;56841;55.964;37.674;2023-08-06T04:21:19;20.85;;;10.75;;
69621;SDS011;56841;55.964;37.674;2023-08-06T04:23:46;19.33;;;10.27;;
69621;SDS011;56841;55.964;37.674;2023-08-06T04:26:12;19.38;;;10.55;;
69621;SDS011;56841;55.964;37.674;2023-08-06T04:28:38;21.13;;;10.43;;
69621;SDS011;56841;55.964;37.674;2023-08-06T04:31:04;15.45;;;10.00;;
69621;SDS011;56841;55.964;37.674;2023-08-06T04:33:32;17.17;;;10.00;;
69621;SDS011;56841;55.964;37.674;2023-08-06T04:36:03;20.45;;;10.30;;
69621;SDS011;56841;55.964;37.674;2023-08-06T04:38:29;19.13;;;9.15;;
69621;SDS011;56841;55.964;37.674;2023-08-06T04:40:55;15.32;;;8.55;;
69621;SDS011;56841;55.964;37.674;2023-08-06T04:43:22;16.60;;;8.90;;
69621;SDS011;56841;55.964;37.674;2023-08-06T04:45:48;17.17;;;8.52;;
69621;SDS011;56841;55.964;37.674;2023-08-06T04:48:15;14.93;;;8.57;;
69621;SDS011;56841;55.964;37.674;2023-08-06T04:50:44;16.80;;;8.48;;
69621;SDS011;56841;55.964;37.674;2023-08-06T04:53:10;18.10;;;8.65;;
69621;SDS011;56841;55.964;37.674;2023-08-06T04:55:36;21.00;;;8.65;;
69621;SDS011;56841;55.964;37.674;2023-08-06T04:58:02;15.43;;;8.55;;
69621;SDS011;56841;55.964;37.674;2023-08-06T05:00:28;15.45;;;8.23;;
69621;SDS011;56841;55.964;37.674;2023-08-06T05:02:54;17.45;;;8.90;;
69621;SDS011;56841;55.964;37.674;2023-08-06T05:05:20;15.35;;;8.32;;
69621;SDS011;56841;55.964;37.674;2023-08-06T05:07:48;15.05;;;7.88;;
69621;SDS011;56841;55.964;37.674;2023-08-06T05:10:14;14.45;;;7.68;;
69621;SDS011;56841;55.964;37.674;2023-08-06T05:12:40;13.60;;;7.75;;
69621;SDS011;56841;55.964;37.674;2023-08-06T05:15:06;12.63;;;7.70;;
69621;SDS011;56841;55.964;37.674;2023-08-06T05:17:32;13.80;;;7.82;;
69621;SDS011;56841;55.964;37.674;2023-08-06T05:19:59;14.52;;;7.47;;
69621;SDS011;56841;55.964;37.674;2023-08-06T05:22:25;16.50;;;7.53;;
69621;SDS011;56841;55.964;37.674;2023-08-06T05:24:51;12.05;;;7.68;;
69621;SDS011;56841;55.964;37.674;2023-08-06T05:27:16;14.57;;;7.43;;
69621;SDS011;56841;55.964;37.674;2023-08-06T05:29:45;24.52;;;7.50;;
69621;SDS011;56841;55.964;37.674;2023-08-06T05:32:11;17.13;;;7.43;;
69621;SDS011;56841;55.964;37.674;2023-08-06T05:34:37;12.15;;;6.95;;
69621;SDS011;56841;55.964;37.674;2023-08-06T05:37:03;13.50;;;6.72;;
69621;SDS011;56841;55.964;37.674;2023-08-06T05:39:29;15.52;;;6.68;;
69621;SDS011;56841;55.964;37.674;2023-08-06T05:41:55;16.13;;;7.05;;
69621;SDS011;56841;55.964;37.674;2023-08-06T05:44:21;15.02;;;6.43;;
69621;SDS011;56841;55.964;37.674;2023-08-06T05:46:47;17.02;;;6.80;;
69621;SDS011;56841;55.964;37.674;2023-08-06T05:49:15;14.05;;;6.82;;
69621;SDS011;56841;55.964;37.674;2023-08-06T05:51:41;14.90;;;6.13;;
69621;SDS011;56841;55.964;37.674;2023-08-06T05:54:07;13.77;;;6.47;;
69621;SDS011;56841;55.964;37.674;2023-08-06T05:56:32;11.30;;;6.20;;
69621;SDS011;56841;55.964;37.674;2023-08-06T05:58:58;11.90;;;5.90;;
69621;SDS011;56841;55.964;37.674;2023-08-06T06:01:24;14.98;;;6.70;;
69621;SDS011;56841;55.964;37.674;2023-08-06T06:03:50;11.82;;;5.90;;
69621;SDS011;56841;55.964;37.674;2023-08-06T06:06:15;12.13;;;6.05;;
69621;SDS011;56841;55.964;37.674;2023-08-06T06:08:42;13.55;;;6.13;;
69621;SDS011;56841;55.964;37.674;2023-08-06T06:11:08;14.82;;;6.57;;
69621;SDS011;56841;55.964;37.674;2023-08-06T06:13:34;11.32;;;5.82;;
69621;SDS011;56841;55.964;37.674;2023-08-06T06:15:59;13.40;;;5.57;;
69621;SDS011;56841;55.964;37.674;2023-08-06T06:18:25;12.77;;;5.88;;
69621;SDS011;56841;55.964;37.674;2023-08-06T06:20:51;17.30;;;5.75;;
69621;SDS011;56841;55.964;37.674;2023-08-06T06:23:16;11.60;;;5.68;;
69621;SDS011;56841;55.964;37.674;2023-08-06T06:25:43;12.52;;;5.65;;
69621;SDS011;56841;55.964;37.674;2023-08-06T06:28:12;12.75;;;5.93;;
69621;SDS011;56841;55.964;37.674;2023-08-06T06:30:38;14.98;;;5.72;;
69621;SDS011;56841;55.964;37.674;2023-08-06T06:33:03;12.20;;;6.00;;
69621;SDS011;56841;55.964;37.674;2023-08-06T06:35:29;14.27;;;5.72;;
69621;SDS011;56841;55.964;37.674;2023-08-06T06:37:55;13.23;;;5.18;;
69621;SDS011;56841;55.964;37.674;2023-08-06T06:40:21;9.68;;;4.93;;
69621;SDS011;56841;55.964;37.674;2023-08-06T06:42:46;8.45;;;5.05;;
69621;SDS011;56841;55.964;37.674;2023-08-06T06:45:13;11.80;;;5.53;;
69621;SDS011;56841;55.964;37.674;2023-08-06T06:47:38;10.80;;;5.55;;
69621;SDS011;56841;55.964;37.674;2023-08-06T06:50:04;12.55;;;5.18;;
69621;SDS011;56841;55.964;37.674;2023-08-06T06:52:31;12.73;;;5.57;;
69621;SDS011;56841;55.964;37.674;2023-08-06T06:54:56;10.70;;;5.25;;
69621;SDS011;56841;55.964;37.674;2023-08-06T06:57:22;12.27;;;4.88;;
69621;SDS011;56841;55.964;37.674;2023-08-06T06:59:48;10.98;;;5.75;;
69621;SDS011;56841;55.964;37.674;2023-08-06T07:02:14;12.68;;;5.60;;
69621;SDS011;56841;55.964;37.674;2023-08-06T07:04:39;10.00;;;4.90;;
69621;SDS011;56841;55.964;37.674;2023-08-06T07:07:05;7.32;;;4.72;;
69621;SDS011;56841;55.964;37.674;2023-08-06T07:09:31;10.15;;;5.20;;
69621;SDS011;56841;55.964;37.674;2023-08-06T07:11:57;10.90;;;4.60;;
69621;SDS011;56841;55.964;37.674;2023-08-06T07:14:24;13.73;;;5.50;;
69621;SDS011;56841;55.964;37.674;2023-08-06T07:16:51;8.00;;;4.85;;
69621;SDS011;56841;55.964;37.674;2023-08-06T07:19:16;11.27;;;4.75;;
69621;SDS011;56841;55.964;37.674;2023-08-06T07:21:43;7.80;;;4.63;;
69621;SDS011;56841;55.964;37.674;2023-08-06T07:24:09;10.20;;;4.82;;
69621;SDS011;56841;55.964;37.674;2023-08-06T07:26:35;8.90;;;4.53;;
69621;SDS011;56841;55.964;37.674;2023-08-06T07:29:00;9.15;;;5.10;;
69621;SDS011;56841;55.964;37.674;2023-08-06T07:31:26;7.72;;;4.80;;
69621;SDS011;56841;55.964;37.674;2023-08-06T07:33:52;10.15;;;4.50;;
69621;SDS011;56841;55.964;37.674;2023-08-06T07:36:18;7.55;;;4.20;;
69621;SDS011;56841;55.964;37.674;2023-08-06T07:38:43;13.30;;;4.35;;
69621;SDS011;56841;55.964;37.674;2023-08-06T07:41:09;7.57;;;4.38;;
69621;SDS011;56841;55.964;37.674;2023-08-06T07:43:35;10.02;;;4.15;;
69621;SDS011;56841;55.964;37.674;2023-08-06T07:46:01;11.30;;;4.30;;
69621;SDS011;56841;55.964;37.674;2023-08-06T07:48:27;8.32;;;3.92;;
69621;SDS011;56841;55.964;37.674;2023-08-06T07:50:53;10.02;;;4.50;;
69621;SDS011;56841;55.964;37.674;2023-08-06T07:53:21;12.60;;;4.55;;
69621;SDS011;56841;55.964;37.674;2023-08-06T07:55:50;8.05;;;3.83;;
69621;SDS011;56841;55.964;37.674;2023-08-06T07:58:17;10.75;;;4.00;;
69621;SDS011;56841;55.964;37.674;2023-08-06T08:00:43;8.82;;;4.53;;
69621;SDS011;56841;55.964;37.674;2023-08-06T08:03:11;8.85;;;4.75;;
69621;SDS011;56841;55.964;37.674;2023-08-06T08:05:41;10.68;;;4.60;;
69621;SDS011;56841;55.964;37.674;2023-08-06T08:08:08;9.93;;;4.65;;
69621;SDS011;56841;55.964;37.674;2023-08-06T08:10:34;8.45;;;4.80;;
69621;SDS011;56841;55.964;37.674;2023-08-06T08:13:02;7.57;;;4.47;;
69621;SDS011;56841;55.964;37.674;2023-08-06T08:15:28;8.70;;;4.10;;
69621;SDS011;56841;55.964;37.674;2023-08-06T08:17:54;10.35;;;4.90;;
69621;SDS011;56841;55.964;37.674;2023-08-06T08:20:20;10.70;;;4.88;;
69621;SDS011;56841;55.964;37.674;2023-08-06T08:22:46;10.82;;;4.93;;
69621;SDS011;56841;55.964;37.674;2023-08-06T08:25:12;5.97;;;4.63;;
69621;SDS011;56841;55.964;37.674;2023-08-06T08:27:40;10.90;;;4.55;;
69621;SDS011;56841;55.964;37.674;2023-08-06T08:30:05;12.90;;;4.45;;
69621;SDS011;56841;55.964;37.674;2023-08-06T08:32:32;11.00;;;4.95;;
69621;SDS011;56841;55.964;37.674;2023-08-06T08:34:57;10.80;;;4.85;;
69621;SDS011;56841;55.964;37.674;2023-08-06T08:37:23;9.88;;;5.13;;
69621;SDS011;56841;55.964;37.674;2023-08-06T08:39:49;13.63;;;4.97;;
69621;SDS011;56841;55.964;37.674;2023-08-06T08:42:15;11.20;;;4.90;;
69621;SDS011;56841;55.964;37.674;2023-08-06T08:44:42;11.70;;;5.25;;
69621;SDS011;56841;55.964;37.674;2023-08-06T08:47:09;9.25;;;5.15;;
69621;SDS011;56841;55.964;37.674;2023-08-06T08:49:36;9.52;;;4.85;;
69621;SDS011;56841;55.964;37.674;2023-08-06T08:52:03;8.63;;;5.10;;
69621;SDS011;56841;55.964;37.674;2023-08-06T08:54:35;10.57;;;5.40;;
69621;SDS011;56841;55.964;37.674;2023-08-06T08:57:03;16.23;;;5.20;;
69621;SDS011;56841;55.964;37.674;2023-08-06T08:59:29;11.23;;;4.97;;
69621;SDS011;56841;55.964;37.674;2023-08-06T09:01:55;10.60;;;5.28;;
69621;SDS011;56841;55.964;37.674;2023-08-06T09:04:22;10.20;;;5.05;;
69621;SDS011;56841;55.964;37.674;2023-08-06T09:06:50;12.23;;;5.22;;
69621;SDS011;56841;55.964;37.674;2023-08-06T09:09:25;9.82;;;5.18;;
69621;SDS011;56841;55.964;37.674;2023-08-06T09:11:53;9.75;;;5.10;;
69621;SDS011;56841;55.964;37.674;2023-08-06T09:14:25;7.75;;;5.00;;
69621;SDS011;56841;55.964;37.674;2023-08-06T09:16:51;9.70;;;5.50;;
69621;SDS011;56841;55.964;37.674;2023-08-06T09:19:17;8.23;;;4.88;;
69621;SDS011;56841;55.964;37.674;2023-08-06T09:21:44;10.57;;;4.43;;
69621;SDS011;56841;55.964;37.674;2023-08-06T09:24:14;10.30;;;5.13;;
69621;SDS011;56841;55.964;37.674;2023-08-06T09:26:41;10.32;;;5.32;;
69621;SDS011;56841;55.964;37.674;2023-08-06T09:29:09;7.65;;;4.72;;
69621;SDS011;56841;55.964;37.674;2023-08-06T09:31:44;9.80;;;4.93;;
69621;SDS011;56841;55.964;37.674;2023-08-06T09:34:15;8.63;;;5.53;;
69621;SDS011;56841;55.964;37.674;2023-08-06T09:36:46;8.68;;;5.25;;
69621;SDS011;56841;55.964;37.674;2023-08-06T09:39:14;11.18;;;5.55;;
69621;SDS011;56841;55.964;37.674;2023-08-06T09:41:47;10.15;;;5.72;;
69621;SDS011;56841;55.964;37.674;2023-08-06T09:44:21;14.68;;;5.45;;
69621;SDS011;56841;55.964;37.674;2023-08-06T09:46:49;15.07;;;5.63;;
69621;SDS011;56841;55.964;37.674;2023-08-06T09:49:17;9.73;;;5.53;;
69621;SDS011;56841;55.964;37.674;2023-08-06T09:51:45;9.30;;;4.90;;
69621;SDS011;56841;55.964;37.674;2023-08-06T09:54:16;14.27;;;5.65;;
69621;SDS011;56841;55.964;37.674;2023-08-06T09:56:44;7.30;;;4.80;;
69621;SDS011;56841;55.964;37.674;2023-08-06T09:59:11;7.13;;;4.90;;
69621;SDS011;56841;55.964;37.674;2023-08-06T10:01:37;9.75;;;4.93;;
69621;SDS011;56841;55.964;37.674;2023-08-06T10:04:03;6.55;;;4.88;;
69621;SDS011;56841;55.964;37.674;2023-08-06T10:06:34;6.72;;;4.65;;
69621;SDS011;56841;55.964;37.674;2023-08-06T10:09:03;8.73;;;5.13;;
69621;SDS011;56841;55.964;37.674;2023-08-06T10:11:30;8.18;;;5.10;;
69621;SDS011;56841;55.964;37.674;2023-08-06T10:14:06;10.10;;;5.03;;
69621;SDS011;56841;55.964;37.674;2023-08-06T10:16:35;8.05;;;5.07;;
69621;SDS011;56841;55.964;37.674;2023-08-06T10:19:02;7.03;;;5.15;;
69621;SDS011;56841;55.964;37.674;2023-08-06T10:21:33;9.35;;;5.00;;
69621;SDS011;56841;55.964;37.674;2023-08-06T10:23:58;6.82;;;4.55;;
69621;SDS011;56841;55.964;37.674;2023-08-06T10:26:25;7.07;;;4.85;;
69621;SDS011;56841;55.964;37.674;2023-08-06T10:28:52;8.85;;;5.07;;
69621;SDS011;56841;55.964;37.674;2023-08-06T10:31:18;8.13;;;5.18;;
69621;SDS011;56841;55.964;37.674;2023-08-06T10:33:44;7.00;;;5.03;;
69621;SDS011;56841;55.964;37.674;2023-08-06T10:36:12;7.40;;;5.10;;
69621;SDS011;56841;55.964;37.674;2023-08-06T10:38:44;6.93;;;4.40;;
69621;SDS011;56841;55.964;37.674;2023-08-06T10:41:27;7.00;;;5.00;;
69621;SDS011;56841;55.964;37.674;2023-08-06T10:44:10;7.95;;;5.50;;
69621;SDS011;56841;55.964;37.674;2023-08-06T10:46:37;8.43;;;4.90;;
69621;SDS011;56841;55.964;37.674;2023-08-06T10:49:03;7.28;;;4.70;;
69621;SDS011;56841;55.964;37.674;2023-08-06T10:51:30;9.68;;;5.20;;
69621;SDS011;56841;55.964;37.674;2023-08-06T10:53:56;8.60;;;5.57;;
69621;SDS011;56841;55.964;37.674;2023-08-06T10:56:24;7.30;;;5.10;;
69621;SDS011;56841;55.964;37.674;2023-08-06T10:58:53;7.00;;;5.00;;
69621;SDS011;56841;55.964;37.674;2023-08-06T11:01:23;6.93;;;4.50;;
69621;SDS011;56841;55.964;37.674;2023-08-06T11:03:50;10.75;;;4.85;;
69621;SDS011;56841;55.964;37.674;2023-08-06T11:06:19;6.72;;;5.03;;
69621;SDS011;56841;55.964;37.674;2023-08-06T11:08:50;9.13;;;5.18;;
69621;SDS011;56841;55.964;37.674;2023-08-06T11:11:20;8.57;;;4.90;;
69621;SDS011;56841;55.964;37.674;2023-08-06T11:13:48;9.35;;;5.35;;
69621;SDS011;56841;55.964;37.674;2023-08-06T11:16:16;9.63;;;5.65;;
69621;SDS011;56841;55.964;37.674;2023-08-06T11:18:44;8.10;;;5.10;;
69621;SDS011;56841;55.964;37.674;2023-08-06T11:21:10;11.30;;;6.00;;
69621;SDS011;56841;55.964;37.674;2023-08-06T11:23:42;7.05;;;4.85;;
69621;SDS011;56841;55.964;37.674;2023-08-06T11:26:11;9.18;;;5.38;;
69621;SDS011;56841;55.964;37.674;2023-08-06T11:28:37;11.82;;;5.93;;
69621;SDS011;56841;55.964;37.674;2023-08-06T11:31:03;8.98;;;5.45;;
69621;SDS011;56841;55.964;37.674;2023-08-06T11:33:29;7.82;;;5.22;;
69621;SDS011;56841;55.964;37.674;2023-08-06T11:35:56;6.20;;;5.03;;
69621;SDS011;56841;55.964;37.674;2023-08-06T11:38:26;10.15;;;5.75;;
69621;SDS011;56841;55.964;37.674;2023-08-06T11:40:54;11.95;;;5.32;;
69621;SDS011;56841;55.964;37.674;2023-08-06T11:43:21;6.70;;;4.60;;
69621;SDS011;56841;55.964;37.674;2023-08-06T11:45:48;10.93;;;5.20;;
69621;SDS011;56841;55.964;37.674;2023-08-06T11:48:16;12.68;;;5.30;;
69621;SDS011;56841;55.964;37.674;2023-08-06T11:50:43;7.13;;;5.15;;
69621;SDS011;56841;55.964;37.674;2023-08-06T11:53:11;12.18;;;5.68;;
69621;SDS011;56841;55.964;37.674;2023-08-06T11:55:40;9.55;;;4.93;;
69621;SDS011;56841;55.964;37.674;2023-08-06T11:58:06;9.63;;;5.25;;
69621;SDS011;56841;55.964;37.674;2023-08-06T12:00:32;7.80;;;4.60;;
69621;SDS011;56841;55.964;37.674;2023-08-06T12:02:58;9.68;;;5.05;;
69621;SDS011;56841;55.964;37.674;2023-08-06T12:05:31;9.32;;;5.00;;
69621;SDS011;56841;55.964;37.674;2023-08-06T12:08:01;11.30;;;5.55;;
69621;SDS011;56841;55.964;37.674;2023-08-06T12:10:29;9.98;;;5.10;;
69621;SDS011;56841;55.964;37.674;2023-08-06T12:12:56;6.80;;;4.63;;
69621;SDS011;56841;55.964;37.674;2023-08-06T12:15:22;9.52;;;4.72;;
69621;SDS011;56841;55.964;37.674;2023-08-06T12:17:48;8.40;;;4.80;;
69621;SDS011;56841;55.964;37.674;2023-08-06T12:20:14;8.63;;;4.72;;
69621;SDS011;56841;55.964;37.674;2023-08-06T12:22:40;8.07;;;4.82;;
69621;SDS011;56841;55.964;37.674;2023-08-06T12:25:06;10.95;;;5.32;;
69621;SDS011;56841;55.964;37.674;2023-08-06T12:27:35;7.85;;;4.63;;
69621;SDS011;56841;55.964;37.674;2023-08-06T12:30:01;9.02;;;4.55;;
69621;SDS011;56841;55.964;37.674;2023-08-06T12:32:33;10.98;;;4.88;;
69621;SDS011;56841;55.964;37.674;2023-08-06T12:35:00;8.63;;;5.03;;
69621;SDS011;56841;55.964;37.674;2023-08-06T12:37:26;8.07;;;5.57;;
69621;SDS011;56841;55.964;37.674;2023-08-06T12:39:52;14.50;;;6.07;;
69621;SDS011;56841;55.964;37.674;2023-08-06T12:42:18;11.73;;;5.90;;
69621;SDS011;56841;55.964;37.674;2023-08-06T12:44:44;11.48;;;5.47;;
69621;SDS011;56841;55.964;37.674;2023-08-06T12:47:10;10.10;;;5.03;;
69621;SDS011;56841;55.964;37.674;2023-08-06T12:49:36;12.13;;;4.82;;
69621;SDS011;56841;55.964;37.674;2023-08-06T12:52:02;8.82;;;4.50;;
69621;SDS011;56841;55.964;37.674;2023-08-06T12:54:31;7.43;;;4.72;;
69621;SDS011;56841;55.964;37.674;2023-08-06T12:57:02;7.53;;;4.88;;
69621;SDS011;56841;55.964;37.674;2023-08-06T12:59:28;10.93;;;5.93;;
69621;SDS011;56841;55.964;37.674;2023-08-06T13:01:54;15.02;;;5.47;;
69621;SDS011;56841;55.964;37.674;2023-08-06T13:04:20;8.50;;;4.85;;
69621;SDS011;56841;55.964;37.674;2023-08-06T13:06:46;10.52;;;5.13;;
69621;SDS011;56841;55.964;37.674;2023-08-06T13:09:12;6.93;;;5.28;;
69621;SDS011;56841;55.964;37.674;2023-08-06T13:11:38;10.50;;;5.10;;
69621;SDS011;56841;55.964;37.674;2023-08-06T13:14:06;7.45;;;5.00;;
69621;SDS011;56841;55.964;37.674;2023-08-06T13:16:34;9.60;;;5.20;;
69621;SDS011;56841;55.964;37.674;2023-08-06T13:19:01;9.10;;;4.95;;
69621;SDS011;56841;55.964;37.674;2023-08-06T13:21:31;8.10;;;5.00;;
69621;SDS011;56841;55.964;37.674;2023-08-06T13:24:01;12.50;;;5.38;;
69621;SDS011;56841;55.964;37.674;2023-08-06T13:26:28;11.75;;;5.15;;
69621;SDS011;56841;55.964;37.674;2023-08-06T13:28:57;11.25;;;5.03;;
69621;SDS011;56841;55.964;37.674;2023-08-06T13:31:24;8.65;;;4.90;;
69621;SDS011;56841;55.964;37.674;2023-08-06T13:33:50;11.13;;;5.30;;
69621;SDS011;56841;55.964;37.674;2023-08-06T13:36:16;8.77;;;5.45;;
69621;SDS011;56841;55.964;37.674;2023-08-06T13:38:42;7.15;;;4.95;;
69621;SDS011;56841;55.964;37.674;2023-08-06T13:41:08;9.32;;;5.40;;
69621;SDS011;56841;55.964;37.674;2023-08-06T13:43:34;16.90;;;5.05;;
69621;SDS011;56841;55.964;37.674;2023-08-06T13:46:00;8.02;;;5.18;;
69621;SDS011;56841;55.964;37.674;2023-08-06T13:48:26;10.50;;;5.53;;
69621;SDS011;56841;55.964;37.674;2023-08-06T13:50:52;13.10;;;6.70;;
69621;SDS011;56841;55.964;37.674;2023-08-06T13:53:18;18.67;;;6.03;;
69621;SDS011;56841;55.964;37.674;2023-08-06T13:55:44;10.90;;;5.40;;
69621;SDS011;56841;55.964;37.674;2023-08-06T13:58:10;11.35;;;5.70;;
69621;SDS011;56841;55.964;37.674;2023-08-06T14:00:36;12.43;;;5.75;;
69621;SDS011;56841;55.964;37.674;2023-08-06T14:03:02;14.32;;;5.75;;
69621;SDS011;56841;55.964;37.674;2023-08-06T14:05:28;9.73;;;4.78;;
69621;SDS011;56841;55.964;37.674;2023-08-06T14:07:54;10.25;;;4.95;;
69621;SDS011;56841;55.964;37.674;2023-08-06T14:10:19;10.35;;;5.10;;
69621;SDS011;56841;55.964;37.674;2023-08-06T14:12:45;9.77;;;4.90;;
69621;SDS011;56841;55.964;37.674;2023-08-06T14:15:11;8.38;;;5.22;;
69621;SDS011;56841;55.964;37.674;2023-08-06T14:17:37;8.63;;;5.22;;
69621;SDS011;56841;55.964;37.674;2023-08-06T14:20:03;9.25;;;5.47;;
69621;SDS011;56841;55.964;37.674;2023-08-06T14:22:30;11.48;;;4.50;;
69621;SDS011;56841;55.964;37.674;2023-08-06T14:24:59;7.55;;;4.65;;
69621;SDS011;56841;55.964;37.674;2023-08-06T14:27:29;12.38;;;5.13;;
69621;SDS011;56841;55.964;37.674;2023-08-06T14:29:55;11.85;;;4.78;;